Date,TemperatureHighF,TemperatureAvgF,TemperatureLowF,DewpointHighF,DewpointAvgF,DewpointLowF,HumidityHigh,HumidityAvg,HumidityLow,PressureMaxIn,PressureMinIn,WindSpeedMaxMPH,WindSpeedAvgMPH,GustSpeedMaxMPH,PrecipitationSumIn
2013-3-25,50,45,41,24,22,20,48,40,30,30.13,30.07,1,0,5,0.00
2013-3-26,58,46,36,30,26,23,64,47,30,30.08,29.87,2,0,7,0.00
2013-3-27,66,49,33,32,28,25,74,47,24,30.01,29.88,4,0,7,0.00
2013-3-28,70,56,42,35,28,23,54,36,20,29.96,29.87,5,1,11,0.00
2013-3-29,67,56,44,36,32,29,62,42,27,30.09,29.96,4,0,7,0.00
2013-3-30,67,54,39,39,31,-100,68,43,24,30.11,30.01,4,0,8,0.00
2013-3-31,71,57,42,34,27,20,53,34,17,30.04,29.79,3,0,10,0.00
2013-4-1,59,52,42,42,38,28,93,61,31,29.90,29.75,6,1,14,0.80
2013-4-2,62,48,38,45,40,36,95,75,45,30.04,29.90,5,0,11,1.30
2013-4-3,68,54,40,43,36,28,84,53,27,30.13,30.02,3,0,7,0.01
2013-4-4,72,60,46,38,31,27,55,35,19,30.05,29.74,6,1,15,0.00
2013-4-5,64,55,43,44,35,27,89,51,25,29.91,29.72,5,1,17,0.28
2013-4-6,60,51,42,38,32,27,66,49,35,29.95,29.87,5,0,11,0.10
2013-4-7,63,52,43,39,33,27,70,50,27,29.90,29.51,5,0,12,0.00
2013-4-8,52,42,34,40,37,26,92,81,46,29.54,29.35,8,1,21,0.98
2013-4-9,40,32,26,26,16,13,76,52,35,30.23,29.54,10,4,23,0.21
2013-4-10,54,41,26,30,21,13,66,46,30,30.29,29.99,5,1,15,0.00
2013-4-11,57,47,40,42,35,27,94,67,36,30.03,29.88,3,0,7,0.35
2013-4-12,61,49,37,34,29,26,73,49,27,30.01,29.81,3,0,7,0.03
2013-4-13,59,49,40,39,30,16,81,49,28,29.81,29.46,4,0,15,0.04
2013-4-14,50,40,30,22,15,9,56,37,24,29.89,29.65,5,1,14,0.04
2013-4-15,50,39,33,36,30,22,94,72,42,29.76,29.64,3,0,14,0.21
2013-4-16,42,39,35,30,23,15,80,54,42,29.96,29.67,5,2,13,0.05
2013-4-17,46,37,30,23,15,11,51,41,27,30.26,29.96,7,2,16,0.00
2013-4-18,49,38,25,19,14,4,57,38,24,30.38,30.26,6,1,11,0.00
2013-4-19,54,44,31,41,24,14,89,46,32,30.35,30.01,4,0,8,0.08
2013-4-20,57,46,40,45,39,33,93,79,43,30.11,29.99,2,0,9,0.50
2013-4-21,66,51,35,36,32,27,82,51,25,30.16,29.89,4,0,7,0.01
2013-4-22,55,48,39,35,28,18,69,47,24,30.09,29.90,4,1,12,0.00
2013-4-23,52,41,29,25,18,8,70,42,23,30.27,30.09,4,1,11,0.00
2013-4-24,60,47,32,27,19,11,54,33,23,30.26,30.09,4,1,9,0.00
2013-4-25,65,51,36,31,19,-10,51,31,5,30.09,29.94,5,0,10,0.00
2013-4-26,69,56,39,31,21,9,50,27,15,30.17,30.02,3,0,10,0.00
2013-4-27,74,59,41,36,25,16,53,28,13,30.18,29.96,3,0,8,0.00
2013-4-28,76,63,44,40,31,25,55,31,18,29.97,29.75,4,0,11,0.00
2013-4-29,74,61,46,38,33,29,59,37,22,29.84,29.55,3,0,6,0.00
2013-4-30,60,53,45,37,22,1,66,34,14,30.00,29.60,4,1,10,0.00
2013-5-1,53,43,34,31,17,3,83,38,18,30.57,30.00,4,1,10,0.00
2013-5-2,63,49,38,26,20,10,50,33,17,30.66,30.35,4,1,12,0.00
2013-5-3,71,55,37,28,22,13,55,30,11,30.35,29.87,2,0,8,0.00
2013-5-4,71,58,44,36,25,14,43,28,19,29.89,29.70,5,1,17,0.00
2013-5-5,77,62,51,41,32,29,45,34,19,29.75,29.62,7,2,22,0.00
2013-5-6,73,61,52,45,36,29,78,39,22,29.79,29.66,5,1,17,0.02
2013-5-7,71,55,45,48,42,34,90,66,29,29.88,29.72,4,0,10,0.12
2013-5-8,64,52,43,50,42,37,89,70,48,30.01,29.88,2,0,6,0.12
2013-5-9,75,61,46,45,41,35,79,50,27,30.02,29.88,4,1,10,0.01
2013-5-10,78,65,54,49,37,-100,68,39,24,30.04,29.95,5,1,10,0.04
2013-5-11,81,67,56,46,34,-100,49,32,16,30.11,30.00,3,0,7,0.04
2013-5-12,84,70,52,46,34,27,49,29,14,30.07,29.91,2,0,10,0.00
2013-5-13,92,76,60,46,37,33,45,26,13,29.93,29.69,3,1,10,0.00
2013-5-14,87,74,59,49,40,33,53,31,16,29.77,29.58,3,0,7,0.00
2013-5-15,85,71,60,48,41,35,50,35,19,29.69,29.54,5,0,13,0.00
2013-5-16,77,65,58,48,30,-100,60,42,30,29.65,29.49,2,0,9,0.02
2013-5-17,63,56,49,50,42,-100,91,67,53,29.84,29.59,1,0,6,0.17
2013-5-18,64,52,48,50,45,38,95,78,43,29.97,29.83,2,0,6,0.81
2013-5-19,63,53,46,44,41,37,86,65,43,30.02,29.93,4,0,10,0.12
2013-5-20,66,54,46,52,45,41,93,75,47,30.09,30.00,2,0,6,0.18
2013-5-21,77,62,48,47,38,29,82,47,21,30.03,29.58,3,0,11,0.04
2013-5-22,83,67,48,46,35,29,61,34,15,29.62,29.36,4,1,17,0.00
2013-5-23,71,54,37,45,36,31,86,53,31,29.88,29.59,3,0,9,0.00
2013-5-24,76,59,43,40,31,24,67,38,15,29.98,29.75,3,0,9,0.00
2013-5-25,83,67,50,38,30,20,60,28,10,29.75,29.60,4,1,16,0.00
2013-5-26,83,70,56,36,25,17,37,19,10,29.68,29.54,3,1,13,0.00
2013-5-27,72,62,49,43,39,32,75,43,24,29.80,29.63,2,0,8,0.00
2013-5-28,63,53,46,51,45,33,95,75,40,29.78,29.56,2,0,8,0.66
2013-5-29,66,53,43,49,43,35,97,72,35,29.81,29.71,2,0,9,0.15
2013-5-30,68,56,43,46,39,32,90,59,29,29.90,29.80,2,0,10,0.07
2013-5-31,68,56,42,39,32,20,79,42,18,30.11,29.88,2,0,8,0.00
2013-6-1,77,62,46,39,31,24,46,33,18,30.13,29.87,2,0,7,0.00
2013-6-2,91,72,54,44,35,28,50,29,11,29.88,29.40,2,0,7,0.00
2013-6-3,75,65,48,44,34,20,75,36,15,29.79,29.53,2,0,6,0.00
2013-6-4,78,66,51,41,32,22,49,30,19,29.87,29.80,1,0,6,0.00
2013-6-5,81,68,54,45,37,32,56,34,19,29.91,29.81,2,0,7,0.00
2013-6-6,84,71,57,48,39,32,48,32,16,29.87,29.76,2,0,6,0.00
2013-6-7,87,73,56,51,42,35,60,34,18,29.78,29.61,1,0,5,0.00
2013-6-8,85,73,60,51,42,35,59,35,18,29.77,29.63,2,0,6,0.00
2013-6-9,95,76,55,49,41,33,68,30,15,29.79,29.56,1,0,5,0.00
2013-6-10,94,82,67,49,33,13,49,21,6,29.60,29.41,4,1,15,0.00
2013-6-11,88,78,69,43,30,23,28,18,10,29.69,29.46,4,1,13,0.00
2013-6-12,90,77,60,49,37,28,52,25,13,29.73,29.57,2,0,11,0.00
2013-6-13,91,79,58,50,37,26,53,24,10,29.72,29.42,4,1,16,0.00
2013-6-14,74,61,48,42,38,30,71,43,25,29.96,29.72,3,0,8,0.00
2013-6-15,83,71,56,47,36,23,36,28,19,29.91,29.74,3,0,9,0.00
2013-6-16,91,75,52,48,30,18,68,22,7,29.79,29.68,4,1,11,0.00
2013-6-17,92,76,60,43,27,15,42,18,6,29.77,29.61,2,0,9,0.00
2013-6-18,92,79,63,46,26,16,35,16,6,29.64,29.38,3,1,14,0.00
2013-6-19,78,73,58,46,27,13,37,20,9,29.73,29.34,3,1,14,0.00
2013-6-20,72,56,44,39,33,25,70,42,26,29.87,29.73,2,0,6,0.00
2013-6-21,76,75,71,40,36,34,28,25,22,29.79,29.73,0,0,5,0.00
2013-6-22,76,71,52,44,38,30,65,31,22,29.87,29.79,2,0,7,0.00
2013-6-23,83,70,54,46,36,28,52,30,18,29.80,29.47,2,0,11,0.00
2013-6-24,86,74,65,44,36,28,45,26,16,29.65,29.43,4,1,16,0.00
2013-6-25,87,72,57,53,47,42,66,44,24,29.78,29.64,2,0,10,0.00
2013-6-26,92,80,62,57,50,42,63,36,25,29.83,29.68,1,0,6,0.00
2013-6-27,98,83,70,58,49,44,48,33,19,29.89,29.78,2,0,7,0.00
2013-6-28,99,84,67,60,51,43,55,32,21,29.86,29.70,2,0,11,0.00
2013-6-29,100,86,72,56,46,41,35,26,16,29.77,29.58,3,0,10,0.00
2013-6-30,98,88,72,58,49,41,45,27,16,29.71,29.58,5,1,17,0.00
2013-7-1,99,88,71,56,47,39,39,25,16,29.75,29.61,3,1,12,0.00
2013-7-2,97,86,75,59,47,36,34,26,17,29.75,29.60,3,1,10,0.00
2013-7-3,95,84,72,59,52,44,46,33,23,29.72,29.53,2,0,10,0.00
2013-7-4,90,79,63,63,57,50,93,50,30,29.76,29.52,2,0,12,1.12
2013-7-5,89,75,60,64,60,53,93,63,32,29.76,29.50,3,0,17,0.12
2013-7-6,91,72,63,61,57,47,80,61,29,29.70,29.56,2,0,8,0.27
2013-7-7,91,75,61,62,53,45,76,47,27,29.73,29.66,3,0,13,0.27
2013-7-8,94,76,62,60,51,-100,74,44,24,29.80,29.71,2,0,10,0.11
2013-7-9,95,81,68,56,48,38,58,32,14,29.84,29.72,1,0,7,0.11
2013-7-10,99,81,67,55,38,-100,52,24,7,29.78,29.59,2,0,7,0.00
2013-7-11,87,76,67,59,46,32,67,37,19,29.74,29.57,3,0,11,0.00
2013-7-12,86,72,62,63,57,51,87,61,30,29.81,29.71,1,0,4,0.01
2013-7-13,89,76,68,61,56,50,69,51,33,29.80,29.70,4,0,13,0.01
2013-7-14,93,79,63,61,52,42,71,42,19,29.86,29.69,4,1,13,0.01
2013-7-15,96,82,66,62,50,45,75,35,21,29.72,29.50,2,0,9,0.05
2013-7-16,93,76,65,64,59,52,92,58,28,29.83,29.62,5,0,15,0.57
2013-7-17,92,77,65,65,58,51,90,55,25,29.85,29.77,3,0,8,0.53
2013-7-18,94,81,72,61,56,50,55,43,25,29.84,29.68,2,0,10,0.00
2013-7-19,96,82,67,57,47,39,51,30,16,29.77,29.60,2,0,8,0.00
2013-7-20,97,80,68,55,39,-100,41,24,10,29.68,29.53,3,0,8,0.00
2013-7-21,97,82,66,53,41,33,42,24,16,29.63,29.53,1,0,6,0.00
2013-7-22,96,81,66,52,39,31,41,23,11,29.70,29.59,2,0,6,0.00
2013-7-23,94,80,67,51,39,31,39,24,13,29.75,29.64,2,0,6,0.00
2013-7-24,93,80,66,56,42,27,44,28,16,29.73,29.65,2,0,7,0.00
2013-7-25,93,80,67,59,50,42,57,37,17,29.79,29.69,1,0,5,0.00
2013-7-26,95,80,67,58,44,38,47,29,14,29.87,29.71,2,0,9,0.00
2013-7-27,81,74,68,60,53,38,67,49,25,29.77,29.66,2,0,8,0.00
2013-7-28,84,72,62,61,56,49,80,58,34,29.75,29.63,4,0,8,0.03
2013-7-29,85,71,61,59,53,49,78,54,32,29.81,29.70,1,0,8,0.03
2013-7-30,92,77,64,56,49,40,71,40,19,29.95,29.82,1,0,8,0.12
2013-7-31,96,83,64,55,44,36,56,27,13,29.88,29.67,3,1,11,0.00
2013-8-1,94,86,66,55,49,39,50,29,21,29.71,29.46,3,1,13,0.00
2013-8-2,90,76,59,50,41,35,54,31,18,29.74,29.56,2,0,8,0.00
2013-8-3,94,80,66,47,38,31,37,23,11,29.79,29.66,2,0,11,0.00
2013-8-4,95,82,64,46,40,34,43,23,15,29.79,29.65,3,1,11,0.00
2013-8-5,92,79,64,54,43,36,48,29,14,29.75,29.62,7,0,12,0.00
2013-8-6,92,79,68,53,43,37,41,29,20,29.71,29.64,2,0,5,0.00
2013-8-7,91,76,64,48,42,37,49,31,19,29.72,29.63,2,0,8,0.00
2013-8-8,90,74,65,52,44,41,49,35,22,29.75,29.66,5,1,26,0.00
2013-8-9,90,75,59,47,42,33,57,31,13,29.78,29.69,2,1,7,0.00
2013-8-10,91,78,65,50,40,33,43,28,13,29.83,29.70,2,0,9,0.00
2013-8-11,92,77,62,50,42,36,53,31,14,29.85,29.68,3,0,8,0.00
2013-8-12,91,76,65,53,42,33,43,31,14,29.80,29.72,3,0,11,0.00
2013-8-13,92,76,66,49,38,-100,41,29,13,29.85,29.73,4,1,13,0.00
2013-8-14,93,78,67,47,35,-100,36,23,11,29.80,29.67,5,1,20,0.00
2013-8-15,97,69,62,44,17,-100,41,19,6,29.80,29.69,2,0,10,0.00
2013-8-16,95,77,65,50,32,-100,34,21,14,29.83,29.71,1,0,5,0.00
2013-8-17,93,78,68,54,43,-100,48,30,18,29.77,29.70,3,0,13,0.00
2013-8-18,93,78,62,56,50,45,63,39,23,29.84,29.71,2,0,5,0.00
2013-8-19,91,74,64,55,41,-100,57,38,25,29.83,29.70,2,0,9,0.00
2013-8-20,90,75,63,60,53,-100,76,49,27,29.79,29.72,1,0,5,0.00
2013-8-21,90,77,63,60,52,46,70,44,28,29.84,29.72,2,0,6,0.00
2013-8-22,89,77,67,60,53,46,69,44,23,29.87,29.67,3,0,11,0.01
2013-8-23,76,69,63,61,56,51,82,62,47,29.79,29.68,4,0,15,0.03
2013-8-24,85,68,61,59,53,-100,86,63,32,29.84,29.73,3,0,8,0.78
2013-8-25,83,71,57,58,53,49,79,55,34,29.92,29.78,2,0,8,0.26
2013-8-26,77,71,65,58,55,52,70,57,47,29.91,29.83,2,0,8,0.00
2013-8-27,78,69,65,60,56,54,76,64,50,29.88,29.84,0,0,3,0.00
2013-8-28,89,81,68,62,57,52,65,46,30,29.89,29.77,4,0,10,0.11
2013-8-29,93,77,61,60,55,51,82,49,27,29.90,29.78,1,0,4,0.00
2013-8-30,93,79,64,61,54,50,77,43,28,29.86,29.71,2,0,6,0.00
2013-8-31,90,77,68,60,53,-100,64,45,35,29.79,29.71,2,0,9,0.00
2013-9-1,82,73,63,63,58,53,83,60,42,29.79,29.68,1,0,4,0.00
2013-9-2,86,75,66,64,60,57,80,60,43,29.80,29.70,2,0,8,0.00
2013-9-3,87,72,63,64,60,56,87,67,41,29.90,29.77,5,0,13,0.00
2013-9-4,88,72,59,64,59,55,90,65,34,29.98,29.84,1,0,4,0.00
2013-9-5,94,78,65,61,55,48,77,48,21,29.89,29.72,2,0,9,0.00
2013-9-6,93,77,65,60,54,45,70,47,22,29.84,29.68,2,0,9,0.00
2013-9-7,84,70,62,62,55,-100,92,64,40,29.95,29.76,3,0,9,0.28
2013-9-8,74,64,59,61,58,52,95,80,58,29.90,29.78,2,0,9,0.60
2013-9-9,80,69,59,61,53,49,75,59,41,29.81,29.70,1,0,5,0.01
2013-9-10,79,69,60,57,52,47,84,56,40,29.79,29.72,2,0,10,0.01
2013-9-11,83,70,61,62,56,53,93,62,44,29.85,29.76,4,1,13,0.14
2013-9-12,79,68,63,59,54,49,83,60,41,29.93,29.77,3,1,13,0.08
2013-9-13,74,63,58,62,56,53,93,79,57,29.83,29.70,3,0,11,0.32
2013-9-14,71,60,55,61,54,-100,94,85,64,29.83,29.75,2,0,8,0.09
2013-9-15,82,67,55,58,54,51,94,65,38,29.88,29.79,2,0,6,0.01
2013-9-16,87,72,61,59,52,46,79,52,27,29.85,29.66,2,0,7,0.00
2013-9-17,86,73,60,58,48,37,75,45,20,29.68,29.39,4,1,16,0.00
2013-9-18,77,60,52,46,41,31,76,52,28,29.90,29.41,2,0,10,0.00
2013-9-19,69,56,42,41,34,26,79,46,26,30.08,29.90,2,0,6,0.00
2013-9-20,83,62,49,46,36,30,56,38,21,30.01,29.70,2,0,6,0.00
2013-9-21,85,71,52,45,36,-100,67,32,17,29.72,29.39,3,1,20,0.00
2013-9-22,72,67,59,47,40,34,50,39,26,29.70,29.36,4,0,11,0.00
2013-9-23,70,59,48,44,40,36,77,50,33,29.96,29.69,1,0,5,0.00
2013-9-24,82,64,46,41,32,20,71,35,11,29.95,29.51,4,1,18,0.00
2013-9-25,71,54,46,45,38,27,78,60,19,29.68,29.36,3,0,11,0.03
2013-9-26,54,47,43,40,38,34,87,70,51,29.83,29.68,2,0,8,0.04
2013-9-27,53,44,38,42,37,32,90,78,52,30.22,29.83,2,0,5,0.07
2013-9-28,67,49,36,37,30,-100,82,53,20,30.28,30.08,2,0,8,0.06
2013-9-29,70,58,42,38,30,26,61,37,19,30.09,29.83,3,1,9,0.00
2013-9-30,81,70,57,39,32,26,41,26,18,29.80,29.66,3,1,9,0.00
2013-10-1,71,60,56,45,39,36,49,45,36,29.79,29.75,0,0,2,0.00
2013-10-2,67,56,46,46,42,36,83,62,43,29.88,29.71,1,0,6,0.00
2013-10-3,53,48,38,45,35,25,85,62,36,30.01,29.66,3,0,11,0.08
2013-10-4,50,40,35,37,33,29,94,77,48,30.47,30.01,2,0,7,0.27
2013-10-5,57,44,31,35,31,27,88,62,36,30.56,30.46,2,0,7,0.01
2013-10-6,66,50,33,37,31,26,85,50,28,30.48,30.18,1,0,4,0.00
2013-10-7,74,58,40,45,38,31,77,50,29,30.17,29.79,1,0,6,0.00
2013-10-8,66,58,46,37,32,28,54,38,29,29.79,29.68,3,0,7,0.00
2013-10-9,68,53,38,47,37,29,93,59,26,29.75,29.59,2,0,7,0.08
2013-10-10,46,45,44,45,44,42,95,94,93,29.71,29.63,0,0,1,0.21